This is the latest recevied weather packets stored in our database for station/object SV4JYD-14. If no packets are shown the sender has not sent any weather packets the latest 10 day(s).
| Time | Temp. | Humidity | Pressure | Rain* | Wind** | Luminosity | Snow |
|---|---|---|---|---|---|---|---|
| 1777618303 | 11.67° C | 74% | 1018 hPa | 0 mm | - | - | - |
| 1777617403 | 11.11° C | 77% | 1018 hPa | 0 mm | - | - | - |
| 1777616502 | 11.11° C | 78% | 1017 hPa | 0 mm | - | - | - |
| 1777615602 | 11.11° C | 78% | 1018 hPa | 0 mm | - | - | - |
| 1777613802 | 11.11° C | 79% | 1017 hPa | 0 mm | - | - | - |
| 1777612901 | 11.11° C | 79% | 1017 hPa | 0 mm | - | - | - |
| 1777612001 | 11.11° C | 79% | 1017 hPa | 0 mm | - | - | - |
| 1777611101 | 11.11° C | 79% | 1017 hPa | 0 mm | - | - | - |
| 1777610200 | 11.11° C | 79% | 1016 hPa | 0 mm | - | - | - |
| 1777609300 | 11.67° C | 79% | 1016 hPa | 0 mm | - | - | - |
| 1777608400 | 11.67° C | 81% | 1016 hPa | 0 mm | - | - | - |
| 1777607500 | 11.67° C | 82% | 1016 hPa | 0 mm | - | - | - |
| 1777606599 | 11.67° C | 82% | 1016 hPa | 0 mm | - | - | - |
| 1777605699 | 11.67° C | 82% | 1016 hPa | 0 mm | - | - | - |
| 1777604799 | 11.67° C | 82% | 1016 hPa | 0 mm | - | - | - |
| 1777603899 | 12.22° C | 83% | 1015 hPa | 0 mm | - | - | - |
| 1777602998 | 12.22° C | 83% | 1015 hPa | 0 mm | - | - | - |
| 1777602098 | 12.22° C | 83% | 1016 hPa | 0 mm | - | - | - |
| 1777600298 | 12.22° C | 82% | 1015 hPa | 0 mm | - | - | - |
| 1777585894 | 16.67° C | 68% | 1014 hPa | 0 mm | - | - | - |
| 1777583193 | 16.67° C | 64% | 1014 hPa | 0 mm | - | - | - |
| 1777578692 | 17.22° C | 64% | 1013 hPa | 0 mm | - | - | - |
| 1777577791 | 17.22° C | 64% | 1013 hPa | 0 mm | - | - | - |
| 1777575091 | 17.78° C | 61% | 1013 hPa | 0 mm | - | - | - |
| 1777574191 | 18.33° C | 60% | 1013 hPa | 0 mm | - | - | - |
* Rain latest hour (hover to see other rain measurements)
** Current wind speed in m/s (hover to see current wind gust speed)